Time;durP1;ratioP1;P1;durP2;ratioP2;P2;SDS_P1;SDS_P2;PMS_P1;PMS_P2;Temp;Humidity;BMP_temperature;BMP_pressure;BME280_temperature;BME280_humidity;BME280_pressure;Samples;Min_cycle;Max_cycle;Signal;HPM_P1;HPM_P2
2022/10/28 00:01:08;;;;;;;18.07;3.90;;;14.40;99.90;;;;;;5091210;28;20819;-76
2022/10/28 00:03:38;;;;;;;14.13;3.70;;;14.50;99.90;;;;;;5109802;28;20455;-75
2022/10/28 00:06:13;;;;;;;12.27;3.30;;;14.50;99.90;;;;;;5109847;28;20447;-76
2022/10/28 00:08:39;;;;;;;9.00;3.20;;;14.40;99.90;;;;;;5111374;28;20506;-75
2022/10/28 00:11:10;;;;;;;8.93;2.63;;;14.40;99.90;;;;;;5092375;28;20976;-76
2022/10/28 00:13:36;;;;;;;8.27;2.80;;;14.40;99.90;;;;;;5111244;28;20177;-75
2022/10/28 00:16:04;;;;;;;11.23;2.60;;;14.30;99.90;;;;;;5110797;28;21167;-76
2022/10/28 00:18:30;;;;;;;6.30;2.63;;;14.30;99.90;;;;;;5110680;28;20419;-76
2022/10/28 00:21:03;;;;;;;11.43;2.83;;;14.30;99.90;;;;;;5092209;28;20425;-76
2022/10/28 00:23:29;;;;;;;5.57;3.10;;;14.20;99.90;;;;;;5114163;28;20187;-76
2022/10/28 00:25:55;;;;;;;8.23;2.27;;;14.10;99.90;;;;;;5114970;28;22118;-76
2022/10/28 00:28:21;;;;;;;8.00;3.17;;;14.10;99.90;;;;;;5114669;28;20201;-76
2022/10/28 00:30:46;;;;;;;8.00;2.80;;;14.10;99.90;;;;;;5080332;28;20183;-76
2022/10/28 00:33:12;;;;;;;12.73;4.30;;;14.20;99.90;;;;;;5115793;28;20189;-76
2022/10/28 00:35:37;;;;;;;12.60;3.33;;;14.20;99.90;;;;;;5095615;28;20216;-76
2022/10/28 00:38:03;;;;;;;9.00;3.53;;;14.30;99.90;;;;;;5095246;28;20189;-76
2022/10/28 00:40:33;;;;;;;10.00;3.17;;;14.20;99.90;;;;;;5114263;28;20721;-76
2022/10/28 00:42:59;;;;;;;9.53;2.77;;;14.10;99.90;;;;;;5117041;28;20221;-76
2022/10/28 00:45:24;;;;;;;9.60;2.83;;;14.10;99.90;;;;;;5113709;28;20899;-75
2022/10/28 00:47:55;;;;;;;4.03;2.67;;;14.00;99.90;;;;;;5095053;28;20232;-76
2022/10/28 00:50:46;;;;;;;7.90;3.23;;;14.10;99.90;;;;;;5095394;28;20556;-75
2022/10/28 00:53:14;;;;;;;15.93;3.47;;;14.10;99.90;;;;;;5113743;28;20415;-75
2022/10/28 00:55:40;;;;;;;10.17;3.60;;;14.10;99.90;;;;;;5095405;28;20594;-76
2022/10/28 00:58:08;;;;;;;16.83;3.43;;;14.60;99.90;;;;;;5096243;28;20444;-76
2022/10/28 01:00:33;;;;;;;14.13;3.27;;;15.20;99.90;;;;;;5113049;28;20447;-76
2022/10/28 01:02:59;;;;;;;10.07;2.60;;;15.70;99.90;;;;;;5095103;28;20933;-76
2022/10/28 01:05:29;;;;;;;18.07;3.20;;;15.80;99.90;;;;;;5113374;28;20290;-77
2022/10/28 01:08:00;;;;;;;13.80;4.10;;;16.10;99.90;;;;;;5113027;28;20431;-77
2022/10/28 01:10:49;;;;;;;10.73;3.10;;;16.20;99.90;;;;;;5113008;28;20829;-77
2022/10/28 01:13:49;;;;;;;9.93;3.50;;;15.60;99.90;;;;;;5112336;28;20935;-75
2022/10/28 01:16:14;;;;;;;7.70;2.80;;;15.30;99.90;;;;;;5101231;28;20457;-76
2022/10/28 01:19:05;;;;;;;7.93;2.77;;;15.10;99.90;;;;;;5112556;28;20421;-76
2022/10/28 01:21:47;;;;;;;7.70;2.77;;;15.00;99.90;;;;;;5112288;28;20188;-76
2022/10/28 01:24:53;;;;;;;9.37;2.83;;;14.70;99.90;;;;;;5094249;28;20916;-76
2022/10/28 01:27:54;;;;;;;15.73;3.90;;;14.60;99.90;;;;;;5080771;28;20447;-76
2022/10/28 01:30:22;;;;;;;7.33;3.77;;;14.50;99.90;;;;;;5112409;28;20420;-75
2022/10/28 01:33:07;;;;;;;7.90;3.30;;;14.40;99.90;;;;;;5112073;28;20455;-75
2022/10/28 01:35:40;;;;;;;8.43;3.20;;;14.30;99.90;;;;;;5112419;28;20489;-76
2022/10/28 01:38:36;;;;;;;8.40;3.47;;;14.30;99.90;;;;;;5112131;28;20516;-75
2022/10/28 01:41:33;;;;;;;7.97;3.57;;;14.20;99.90;;;;;;5112190;28;20512;-75
2022/10/28 01:44:09;;;;;;;11.33;3.10;;;14.10;99.90;;;;;;5112068;28;20448;-75
2022/10/28 01:46:47;;;;;;;15.50;3.40;;;14.00;99.90;;;;;;5112067;28;21000;-75
2022/10/28 01:49:41;;;;;;;6.80;3.13;;;13.90;99.90;;;;;;5111823;28;20473;-76
2022/10/28 01:52:11;;;;;;;8.00;3.50;;;13.80;99.90;;;;;;5111953;28;20499;-75
2022/10/28 01:54:40;;;;;;;11.20;3.30;;;13.70;99.90;;;;;;5111790;28;20847;-75
2022/10/28 01:57:07;;;;;;;4.93;2.77;;;13.70;99.90;;;;;;5112120;28;20439;-76
2022/10/28 01:59:34;;;;;;;9.10;3.40;;;13.60;99.90;;;;;;5111999;28;20515;-75
2022/10/28 02:02:00;;;;;;;5.27;2.90;;;13.60;99.90;;;;;;5112042;28;20455;-75
2022/10/28 02:04:25;;;;;;;11.90;4.60;;;13.50;99.90;;;;;;5093938;28;20416;-76
2022/10/28 02:06:54;;;;;;;11.20;3.47;;;13.50;99.90;;;;;;5112243;28;20215;-75
2022/10/28 02:09:46;;;;;;;12.10;3.57;;;13.40;99.90;;;;;;5112263;28;20225;-76
2022/10/28 02:12:22;;;;;;;7.37;3.40;;;13.30;99.90;;;;;;5112374;28;20404;-75
2022/10/28 02:14:52;;;;;;;10.20;3.20;;;13.30;99.90;;;;;;5093895;28;20473;-75
2022/10/28 02:17:26;;;;;;;14.93;3.80;;;13.20;99.90;;;;;;5111659;28;20427;-75
2022/10/28 02:20:01;;;;;;;8.70;3.40;;;13.20;99.90;;;;;;5093744;28;20771;-75
2022/10/28 02:22:37;;;;;;;14.60;3.10;;;13.20;99.90;;;;;;5093974;28;20503;-76
2022/10/28 02:25:14;;;;;;;6.80;3.07;;;13.10;99.90;;;;;;5112467;28;20444;-75
2022/10/28 02:27:51;;;;;;;10.10;4.40;;;13.10;99.90;;;;;;5112180;28;20450;-77
2022/10/28 02:30:28;;;;;;;9.90;3.53;;;13.10;99.90;;;;;;5112229;28;20497;-76
2022/10/28 02:33:02;;;;;;;6.77;3.67;;;13.10;99.90;;;;;;5112444;28;20418;-76
2022/10/28 02:35:39;;;;;;;8.87;3.80;;;13.10;99.90;;;;;;5112122;28;20498;-76
2022/10/28 02:38:11;;;;;;;16.97;4.97;;;13.10;99.90;;;;;;5112047;28;20403;-76
2022/10/28 02:40:39;;;;;;;9.57;4.37;;;13.00;99.90;;;;;;5112268;28;20987;-76
2022/10/28 02:43:09;;;;;;;14.10;3.03;;;13.00;99.90;;;;;;5112054;28;20512;-75
2022/10/28 02:45:41;;;;;;;11.17;4.20;;;13.00;99.90;;;;;;5111138;28;20400;-77
2022/10/28 02:48:15;;;;;;;8.33;4.20;;;13.00;99.90;;;;;;5111831;28;20455;-76
2022/10/28 02:50:47;;;;;;;10.53;3.50;;;13.00;99.90;;;;;;5111745;28;20418;-76
2022/10/28 02:53:18;;;;;;;6.63;3.67;;;13.10;99.90;;;;;;5093282;28;20427;-76
2022/10/28 02:55:48;;;;;;;13.03;3.93;;;13.20;99.90;;;;;;5093316;28;20408;-76
2022/10/28 02:58:14;;;;;;;8.03;3.67;;;13.20;99.90;;;;;;5093614;28;20416;-75
2022/10/28 03:00:44;;;;;;;11.07;3.63;;;13.20;99.90;;;;;;5094293;28;21048;-77
2022/10/28 03:03:10;;;;;;;11.93;3.13;;;13.20;99.90;;;;;;5110979;28;20964;-76
2022/10/28 03:05:35;;;;;;;6.60;3.23;;;13.20;99.90;;;;;;5110746;28;20415;-75
2022/10/28 03:08:01;;;;;;;8.93;2.97;;;13.20;99.90;;;;;;5092431;28;20193;-76
2022/10/28 03:10:26;;;;;;;7.60;3.30;;;13.20;99.90;;;;;;5092239;28;20260;-74
2022/10/28 03:12:52;;;;;;;10.97;3.60;;;13.20;99.90;;;;;;5110404;28;20251;-75
2022/10/28 03:15:18;;;;;;;9.50;3.57;;;13.20;99.90;;;;;;5092014;28;20720;-76
2022/10/28 03:17:43;;;;;;;9.27;3.67;;;13.20;99.90;;;;;;5092027;28;20200;-76
2022/10/28 03:20:09;;;;;;;6.60;2.93;;;13.20;99.90;;;;;;5110365;28;20260;-76
2022/10/28 03:22:35;;;;;;;10.37;4.13;;;13.10;99.90;;;;;;5110545;28;20219;-76
2022/10/28 03:25:01;;;;;;;13.23;3.73;;;13.10;99.90;;;;;;5075038;28;20424;-77
2022/10/28 03:27:26;;;;;;;13.87;3.90;;;13.00;99.90;;;;;;5110264;28;20201;-77
2022/10/28 03:29:52;;;;;;;9.43;3.60;;;13.00;99.90;;;;;;5110017;28;20205;-76
2022/10/28 03:32:17;;;;;;;9.30;3.20;;;13.10;99.90;;;;;;5110271;28;20799;-75
2022/10/28 03:34:43;;;;;;;11.63;4.07;;;13.30;99.90;;;;;;5110308;28;20262;-76
2022/10/28 03:37:09;;;;;;;7.80;4.10;;;13.20;99.90;;;;;;5110505;28;20204;-78
2022/10/28 03:39:35;;;;;;;6.73;4.10;;;13.20;99.90;;;;;;5092241;28;20205;-79
2022/10/28 03:42:00;;;;;;;15.30;3.80;;;13.10;99.90;;;;;;5110664;28;20948;-78
2022/10/28 03:44:26;;;;;;;13.33;3.83;;;13.20;99.90;;;;;;5092105;28;20274;-75
2022/10/28 03:46:51;;;;;;;8.63;3.80;;;13.10;99.90;;;;;;5110127;28;20292;-76
2022/10/28 03:49:17;;;;;;;13.23;3.20;;;13.10;99.90;;;;;;5109840;28;20205;-76
2022/10/28 03:51:42;;;;;;;13.03;3.50;;;13.20;99.90;;;;;;5074826;28;20242;-76
2022/10/28 03:54:08;;;;;;;4.30;3.13;;;13.20;99.90;;;;;;5110188;28;20205;-77
2022/10/28 03:56:34;;;;;;;12.07;4.40;;;13.20;99.90;;;;;;5091287;28;20232;-76
2022/10/28 03:58:59;;;;;;;10.10;4.03;;;13.20;99.90;;;;;;5091559;28;20186;-75
2022/10/28 04:01:25;;;;;;;7.00;3.20;;;13.10;99.90;;;;;;5091364;28;20205;-75
2022/10/28 04:03:50;;;;;;;5.40;3.47;;;13.20;99.90;;;;;;5109846;28;20615;-75
2022/10/28 04:06:16;;;;;;;8.83;3.83;;;13.30;99.90;;;;;;5110237;28;20192;-78
2022/10/28 04:08:42;;;;;;;13.97;4.13;;;13.30;99.90;;;;;;5091780;28;20220;-77
2022/10/28 04:11:07;;;;;;;13.17;4.27;;;13.30;99.90;;;;;;5074939;28;20520;-78
2022/10/28 04:13:33;;;;;;;9.13;3.63;;;13.30;99.90;;;;;;5110177;28;20173;-77
2022/10/28 04:16:00;;;;;;;19.33;4.40;;;13.30;99.90;;;;;;5109988;28;20542;-78
2022/10/28 04:18:26;;;;;;;12.30;4.50;;;13.30;99.90;;;;;;5074655;28;20185;-76
2022/10/28 04:20:52;;;;;;;11.90;4.00;;;13.30;99.90;;;;;;5090649;28;20420;-78
2022/10/28 04:23:18;;;;;;;8.70;3.80;;;13.40;99.90;;;;;;5091035;28;20552;-78
2022/10/28 04:25:43;;;;;;;8.57;3.87;;;13.40;99.90;;;;;;5091038;28;20182;-80
2022/10/28 04:28:09;;;;;;;13.07;3.60;;;13.30;99.90;;;;;;5076011;28;20542;-79
2022/10/28 04:30:34;;;;;;;10.90;3.70;;;13.40;99.90;;;;;;5092571;28;20616;-79
2022/10/28 04:33:00;;;;;;;11.20;4.07;;;13.60;99.90;;;;;;5109162;28;20186;-80
2022/10/28 04:35:26;;;;;;;18.63;5.10;;;13.50;99.90;;;;;;5075239;28;20178;-78
2022/10/28 04:37:51;;;;;;;11.93;4.57;;;13.50;99.90;;;;;;5109172;28;20193;-79
2022/10/28 04:40:17;;;;;;;14.20;4.03;;;13.60;99.90;;;;;;5074119;28;20189;-79
2022/10/28 04:42:42;;;;;;;17.97;4.10;;;13.60;99.90;;;;;;5109195;28;20658;-78
2022/10/28 04:45:08;;;;;;;10.27;3.60;;;13.60;99.90;;;;;;5108378;28;20256;-78
2022/10/28 04:47:34;;;;;;;16.43;4.73;;;13.60;99.90;;;;;;5090363;28;20197;-78
2022/10/28 04:50:00;;;;;;;6.90;3.43;;;13.60;99.90;;;;;;5108489;28;20463;-79
2022/10/28 04:52:25;;;;;;;10.50;3.83;;;13.70;99.90;;;;;;5109318;28;20191;-78
2022/10/28 04:54:51;;;;;;;10.90;4.20;;;13.70;99.90;;;;;;5090863;28;20177;-79
2022/10/28 04:57:17;;;;;;;9.97;3.80;;;13.80;99.90;;;;;;5108846;28;20205;-79
2022/10/28 04:59:42;;;;;;;7.23;4.00;;;13.70;99.90;;;;;;5089991;28;20196;-78
2022/10/28 05:02:08;;;;;;;8.30;3.73;;;13.70;99.90;;;;;;5108001;28;20689;-79
2022/10/28 05:04:34;;;;;;;12.23;3.83;;;13.80;99.90;;;;;;5073647;28;20287;-79
2022/10/28 05:06:59;;;;;;;10.20;3.30;;;13.70;99.90;;;;;;5109755;28;20300;-79
2022/10/28 05:09:25;;;;;;;13.67;4.70;;;13.70;99.90;;;;;;5093518;28;20499;-78
2022/10/28 05:11:50;;;;;;;12.30;4.60;;;13.80;99.90;;;;;;5094098;28;20185;-80
2022/10/28 05:14:16;;;;;;;9.63;4.27;;;13.80;99.90;;;;;;5094051;28;20219;-79
2022/10/28 05:16:42;;;;;;;6.57;2.47;;;13.80;99.90;;;;;;5094079;28;20209;-79
2022/10/28 05:19:07;;;;;;;5.70;1.90;;;14.10;99.90;;;;;;5077251;28;20189;-80
2022/10/28 05:21:33;;;;;;;7.80;1.93;;;15.60;99.90;;;;;;5093619;28;20198;-79
2022/10/28 05:23:58;;;;;;;10.47;3.10;;;16.50;99.90;;;;;;5093755;28;20182;-79
2022/10/28 05:26:24;;;;;;;5.87;1.97;;;17.30;99.90;;;;;;5076518;28;20202;-78
2022/10/28 05:28:50;;;;;;;12.67;2.33;;;17.90;99.90;;;;;;5093256;28;20223;-78
2022/10/28 05:31:16;;;;;;;5.53;1.80;;;18.30;98.20;;;;;;5112076;28;20175;-79
2022/10/28 05:33:42;;;;;;;6.00;1.90;;;18.50;97.00;;;;;;5112657;28;20421;-79
2022/10/28 05:36:08;;;;;;;7.67;1.83;;;18.60;96.90;;;;;;5093450;28;20513;-79
2022/10/28 05:38:34;;;;;;;9.13;2.00;;;18.70;96.80;;;;;;5112253;28;20185;-79
2022/10/28 05:40:59;;;;;;;5.13;1.53;;;18.70;95.80;;;;;;5076823;28;20849;-80
2022/10/28 05:43:25;;;;;;;6.87;1.87;;;18.80;95.40;;;;;;5076704;28;20206;-80
2022/10/28 05:45:55;;;;;;;5.27;2.10;;;18.90;94.90;;;;;;5093548;28;20188;-79
2022/10/28 05:48:21;;;;;;;4.30;1.80;;;18.60;96.60;;;;;;5093224;28;20685;-79
2022/10/28 05:50:46;;;;;;;9.80;2.53;;;18.60;95.20;;;;;;5112310;28;20424;-80
2022/10/28 05:53:12;;;;;;;12.20;3.40;;;18.40;98.60;;;;;;5095017;28;20417;-77
2022/10/28 05:55:38;;;;;;;9.30;2.47;;;18.00;99.90;;;;;;5077101;28;20193;-79
2022/10/28 05:58:03;;;;;;;10.30;2.93;;;17.60;99.90;;;;;;5092922;28;20188;-81
2022/10/28 06:00:29;;;;;;;8.43;2.53;;;17.30;99.90;;;;;;5076496;28;20219;-80
2022/10/28 06:03:09;;;;;;;15.80;3.30;;;17.00;99.90;;;;;;5111336;28;20186;-79
2022/10/28 06:05:41;;;;;;;10.30;3.93;;;16.80;99.90;;;;;;5076777;28;20187;-80
2022/10/28 06:08:07;;;;;;;7.80;4.00;;;16.50;99.90;;;;;;5092405;28;20548;-81
2022/10/28 06:10:33;;;;;;;9.27;4.83;;;16.30;99.90;;;;;;5111069;28;20430;-79
2022/10/28 06:12:58;;;;;;;9.10;4.30;;;16.10;99.90;;;;;;5110802;28;20410;-80
2022/10/28 06:15:24;;;;;;;8.20;3.90;;;16.00;99.90;;;;;;5075537;28;20923;-80
2022/10/28 06:17:49;;;;;;;5.03;2.20;;;15.70;99.90;;;;;;5075441;28;20648;-79
2022/10/28 06:20:16;;;;;;;10.93;4.10;;;15.60;99.90;;;;;;5092336;28;20191;-78
2022/10/28 06:22:53;;;;;;;5.80;2.40;;;16.20;99.90;;;;;;5077877;28;20182;-79
2022/10/28 06:25:20;;;;;;;4.73;2.37;;;16.30;99.90;;;;;;5114087;28;20464;-79
2022/10/28 06:27:55;;;;;;;9.67;2.37;;;16.50;99.90;;;;;;5112249;28;20438;-79
2022/10/28 06:30:21;;;;;;;6.37;3.00;;;16.50;99.90;;;;;;5093707;28;20529;-78
2022/10/28 06:32:47;;;;;;;10.80;2.53;;;16.40;99.90;;;;;;5076627;28;20452;-79
2022/10/28 06:35:13;;;;;;;8.17;2.93;;;16.30;99.90;;;;;;5077575;28;20410;-78
2022/10/28 06:37:38;;;;;;;9.50;2.30;;;16.20;99.90;;;;;;5111801;28;20206;-79
2022/10/28 06:40:04;;;;;;;6.57;2.27;;;16.50;99.90;;;;;;5076583;28;20223;-79
2022/10/28 06:42:30;;;;;;;13.70;2.00;;;17.20;99.90;;;;;;5076354;28;20691;-79
2022/10/28 06:44:55;;;;;;;4.77;1.80;;;18.20;95.50;;;;;;5111870;28;20413;-79
2022/10/28 06:47:21;;;;;;;7.33;3.20;;;18.50;95.50;;;;;;5110909;28;20209;-81
2022/10/28 06:49:47;;;;;;;13.53;4.60;;;18.30;99.40;;;;;;5110869;28;20709;-79
2022/10/28 06:52:12;;;;;;;23.83;5.10;;;17.60;99.90;;;;;;5111494;28;20177;-80
2022/10/28 06:54:38;;;;;;;7.97;4.20;;;16.70;99.90;;;;;;5111148;28;21041;-79
2022/10/28 06:57:04;;;;;;;8.67;4.83;;;16.10;99.90;;;;;;5092515;28;20243;-79
2022/10/28 06:59:29;;;;;;;9.23;4.70;;;15.50;99.90;;;;;;5110532;28;20203;-79
2022/10/28 07:01:55;;;;;;;11.23;4.37;;;15.20;99.90;;;;;;5091708;28;20210;-79
2022/10/28 07:04:20;;;;;;;12.90;3.90;;;15.00;99.90;;;;;;5091678;28;20188;-80
2022/10/28 07:06:46;;;;;;;5.10;2.17;;;14.90;99.90;;;;;;5091767;28;20677;-80
2022/10/28 07:09:15;;;;;;;4.80;1.20;;;15.60;99.90;;;;;;5075495;28;20299;-81
2022/10/28 07:11:42;;;;;;;5.23;1.30;;;16.70;99.90;;;;;;5093003;28;20271;-80
2022/10/28 07:14:09;;;;;;;10.73;1.77;;;17.80;97.30;;;;;;5110167;28;20505;-79
2022/10/28 07:16:35;;;;;;;8.87;1.40;;;18.70;94.00;;;;;;5110850;28;20808;-81
2022/10/28 07:19:00;;;;;;;7.30;1.77;;;19.30;91.20;;;;;;5110576;28;20430;-80
2022/10/28 07:21:28;;;;;;;4.83;2.13;;;19.90;89.00;;;;;;5110643;28;20181;-79
2022/10/28 07:23:57;;;;;;;7.50;1.60;;;20.20;86.70;;;;;;5093015;28;20670;-80
2022/10/28 07:26:23;;;;;;;2.43;1.03;;;20.30;86.00;;;;;;5075425;28;20501;-80
2022/10/28 07:28:49;;;;;;;11.73;2.30;;;20.40;84.50;;;;;;5092288;28;20459;-80
2022/10/28 07:31:14;;;;;;;5.63;1.63;;;20.50;83.60;;;;;;5074655;28;20514;-80
2022/10/28 07:33:40;;;;;;;3.33;1.10;;;20.70;80.90;;;;;;5091908;28;20510;-80
2022/10/28 07:36:06;;;;;;;5.57;1.50;;;20.80;81.60;;;;;;5091886;28;20212;-81
2022/10/28 07:38:32;;;;;;;5.77;1.30;;;20.80;80.20;;;;;;5091578;28;20196;-79
2022/10/28 07:41:02;;;;;;;11.13;1.47;;;20.90;82.70;;;;;;5110465;28;20492;-80
2022/10/28 07:43:27;;;;;;;10.17;1.50;;;21.00;80.40;;;;;;5091668;28;21278;-81
2022/10/28 07:45:56;;;;;;;3.03;1.37;;;20.90;82.10;;;;;;5091281;28;20433;-80
2022/10/28 07:48:22;;;;;;;4.40;1.70;;;20.90;82.40;;;;;;5091080;28;20678;-80
2022/10/28 07:50:48;;;;;;;4.50;1.70;;;20.90;82.60;;;;;;5091037;28;20426;-78
2022/10/28 07:53:13;;;;;;;5.70;2.33;;;21.00;81.60;;;;;;5074435;28;20430;-78
2022/10/28 07:55:39;;;;;;;5.83;1.30;;;21.00;80.80;;;;;;5074402;28;20620;-79
2022/10/28 07:58:05;;;;;;;8.97;1.50;;;21.00;80.40;;;;;;5058051;28;20185;-80
2022/10/28 08:00:30;;;;;;;4.60;1.27;;;21.10;79.90;;;;;;5091487;28;20196;-79
2022/10/28 08:02:56;;;;;;;3.90;1.37;;;21.10;80.30;;;;;;5075058;28;20217;-79
2022/10/28 08:05:22;;;;;;;7.07;1.30;;;21.10;79.90;;;;;;5110146;28;20184;-79
2022/10/28 08:07:47;;;;;;;4.00;1.23;;;21.10;79.30;;;;;;5092927;28;20711;-80
2022/10/28 08:10:13;;;;;;;5.97;1.73;;;21.20;78.70;;;;;;5110298;28;20205;-80
2022/10/28 08:12:38;;;;;;;7.80;1.30;;;21.30;78.20;;;;;;5091989;28;20183;-79
2022/10/28 08:15:05;;;;;;;6.40;1.73;;;21.30;79.10;;;;;;5075236;28;20234;-80
2022/10/28 08:17:30;;;;;;;3.60;1.67;;;21.30;77.80;;;;;;5109864;28;20760;-79
2022/10/28 08:19:56;;;;;;;7.63;1.03;;;21.40;78.10;;;;;;5091110;28;20437;-80
2022/10/28 08:22:22;;;;;;;4.93;1.07;;;21.40;78.40;;;;;;5109221;28;20182;-80
2022/10/28 08:24:48;;;;;;;4.33;1.70;;;21.40;78.60;;;;;;5090681;28;20423;-81
2022/10/28 08:27:13;;;;;;;5.70;1.47;;;21.40;78.30;;;;;;5108774;28;20202;-80
2022/10/28 08:29:39;;;;;;;8.97;1.33;;;21.40;77.90;;;;;;5090296;28;20240;-80
2022/10/28 08:32:08;;;;;;;5.80;1.40;;;21.40;78.60;;;;;;5073564;28;20181;-80
2022/10/28 08:34:33;;;;;;;5.00;1.50;;;21.40;77.80;;;;;;5108950;28;20166;-79
2022/10/28 08:36:59;;;;;;;11.40;1.93;;;21.50;77.50;;;;;;5090902;28;20458;-80
2022/10/28 08:39:24;;;;;;;4.57;1.63;;;21.50;77.70;;;;;;5074032;28;20262;-80
2022/10/28 08:42:01;;;;;;;6.00;1.40;;;21.50;78.60;;;;;;5090384;28;20188;-79
2022/10/28 08:45:09;;;;;;;4.07;1.50;;;21.40;77.60;;;;;;5093272;28;20186;-79
2022/10/28 08:47:45;;;;;;;3.23;1.60;;;21.40;79.40;;;;;;5098597;28;20530;-79
2022/10/28 08:50:12;;;;;;;3.93;1.50;;;21.40;79.20;;;;;;5111996;28;20955;-79
2022/10/28 08:52:46;;;;;;;4.60;1.90;;;21.40;80.40;;;;;;5112748;28;20926;-80
2022/10/28 08:55:41;;;;;;;4.20;1.43;;;21.50;79.30;;;;;;5113288;28;20792;-79
2022/10/28 08:58:15;;;;;;;4.83;1.53;;;21.70;79.00;;;;;;5111512;28;21240;-80
2022/10/28 09:00:44;;;;;;;6.73;1.57;;;21.80;77.50;;;;;;5093195;28;20791;-79
2022/10/28 09:03:10;;;;;;;12.77;1.73;;;21.90;77.00;;;;;;5111866;28;20442;-79
2022/10/28 09:05:40;;;;;;;7.87;1.40;;;21.90;77.30;;;;;;5093108;28;20416;-79
2022/10/28 09:08:08;;;;;;;7.43;1.90;;;21.90;75.40;;;;;;5093015;28;20578;-79
2022/10/28 09:11:07;;;;;;;5.70;1.43;;;21.90;76.40;;;;;;5092915;28;20439;-79
2022/10/28 09:13:53;;;;;;;7.13;1.20;;;21.90;77.90;;;;;;5093097;28;20418;-79
2022/10/28 09:16:37;;;;;;;5.43;1.37;;;22.00;77.30;;;;;;5062972;28;20436;-81
2022/10/28 09:19:30;;;;;;;5.67;1.33;;;21.90;77.20;;;;;;5094295;28;20483;-80
2022/10/28 09:22:14;;;;;;;10.00;1.80;;;22.10;76.40;;;;;;5112323;28;20495;-79
2022/10/28 09:25:02;;;;;;;4.93;1.20;;;22.10;77.00;;;;;;5111800;28;20444;-80
2022/10/28 09:27:45;;;;;;;6.80;1.60;;;22.10;75.80;;;;;;5112764;28;20434;-80
2022/10/28 09:30:43;;;;;;;5.43;1.60;;;22.00;80.30;;;;;;5093022;28;20463;-80
2022/10/28 09:33:30;;;;;;;7.83;1.63;;;22.10;78.00;;;;;;5060230;28;20416;-79
2022/10/28 09:35:56;;;;;;;5.40;1.67;;;22.10;78.30;;;;;;5093426;28;20514;-79
2022/10/28 09:38:29;;;;;;;10.53;1.93;;;22.20;77.40;;;;;;5076823;28;20473;-79
2022/10/28 09:41:18;;;;;;;4.53;2.07;;;22.20;75.80;;;;;;5076891;28;20743;-80
2022/10/28 09:43:56;;;;;;;4.90;2.50;;;22.30;77.10;;;;;;5111745;28;20916;-80
2022/10/28 09:46:25;;;;;;;10.23;1.80;;;22.40;75.40;;;;;;5092791;28;21078;-79
2022/10/28 09:48:54;;;;;;;7.70;1.70;;;22.40;77.50;;;;;;5111574;28;20460;-81
2022/10/28 09:51:42;;;;;;;12.43;3.07;;;22.50;76.60;;;;;;5112566;28;21013;-80
2022/10/28 09:54:08;;;;;;;16.67;4.27;;;22.20;88.70;;;;;;5111103;28;20423;-80
2022/10/28 09:56:34;;;;;;;12.80;4.17;;;21.70;93.60;;;;;;5076239;28;20443;-80
2022/10/28 09:59:04;;;;;;;23.90;8.70;;;21.50;95.60;;;;;;5111602;28;20949;-79
2022/10/28 10:01:35;;;;;;;13.20;6.77;;;21.10;97.30;;;;;;5092048;28;21001;-79
2022/10/28 10:04:02;;;;;;;7.70;3.70;;;20.80;99.90;;;;;;5110539;28;20511;-80
2022/10/28 10:06:41;;;;;;;11.33;3.50;;;20.60;99.90;;;;;;5092786;28;20442;-79
2022/10/28 10:09:28;;;;;;;9.37;3.93;;;20.30;99.90;;;;;;5075351;28;20463;-79
2022/10/28 10:12:01;;;;;;;9.37;3.90;;;20.00;99.90;;;;;;5074978;28;20435;-80
2022/10/28 10:14:44;;;;;;;11.90;3.90;;;20.00;99.90;;;;;;5110784;28;20416;-79
2022/10/28 10:17:23;;;;;;;18.50;6.97;;;20.00;99.90;;;;;;5111355;28;20443;-77
2022/10/28 10:20:08;;;;;;;12.00;3.70;;;20.00;99.90;;;;;;5075318;28;20484;-80
2022/10/28 10:22:52;;;;;;;7.03;3.33;;;20.00;99.90;;;;;;5092662;28;20468;-80
2022/10/28 10:25:18;;;;;;;8.87;3.50;;;20.10;99.90;;;;;;5092173;28;20433;-79
2022/10/28 10:28:14;;;;;;;14.63;4.30;;;20.50;99.90;;;;;;5110492;28;20440;-80
2022/10/28 10:30:53;;;;;;;8.60;4.00;;;22.20;99.90;;;;;;5112762;28;20186;-79
2022/10/28 10:33:27;;;;;;;12.70;4.40;;;23.20;95.00;;;;;;5110855;28;20490;-79
2022/10/28 10:36:19;;;;;;;15.47;4.13;;;23.70;96.20;;;;;;5110761;28;20514;-80
2022/10/28 10:38:55;;;;;;;25.10;4.07;;;23.60;97.10;;;;;;5085339;28;20417;-80
2022/10/28 10:41:41;;;;;;;5.10;2.87;;;23.30;97.30;;;;;;5094389;28;20429;-79
2022/10/28 10:44:22;;;;;;;9.77;3.00;;;23.60;96.90;;;;;;5092682;28;20428;-80
2022/10/28 10:47:12;;;;;;;6.73;3.13;;;23.80;94.20;;;;;;5110394;28;20530;-81
2022/10/28 10:49:37;;;;;;;4.67;1.87;;;23.60;96.00;;;;;;5110511;28;20461;-82
2022/10/28 10:52:16;;;;;;;8.47;3.27;;;23.60;87.10;;;;;;5092328;28;20941;-81
2022/10/28 10:54:56;;;;;;;10.93;3.17;;;23.50;94.60;;;;;;5110662;28;20279;-81
2022/10/28 10:57:23;;;;;;;14.80;4.10;;;23.30;95.00;;;;;;5092434;28;20435;-83
2022/10/28 10:59:52;;;;;;;8.97;3.60;;;23.20;96.20;;;;;;5092694;28;20417;-81
2022/10/28 11:02:31;;;;;;;7.63;3.20;;;23.20;97.10;;;;;;5092037;28;20450;-80
2022/10/28 11:05:05;;;;;;;16.50;3.10;;;23.40;96.10;;;;;;5091383;28;20437;-79
2022/10/28 11:07:31;;;;;;;6.57;2.47;;;23.50;96.80;;;;;;5091543;28;20442;-79
2022/10/28 11:09:57;;;;;;;11.97;4.40;;;23.60;97.40;;;;;;5091512;28;21041;-79
2022/10/28 11:12:34;;;;;;;16.80;3.97;;;23.70;97.50;;;;;;5110085;28;20581;-79
2022/10/28 11:15:20;;;;;;;9.77;3.70;;;24.00;97.50;;;;;;5091857;28;20440;-78
2022/10/28 11:18:08;;;;;;;15.23;3.90;;;24.40;97.50;;;;;;5109348;28;20453;-79
2022/10/28 11:20:51;;;;;;;14.30;3.20;;;24.60;96.10;;;;;;5108903;28;20425;-79
2022/10/28 11:23:58;;;;;;;7.27;3.13;;;24.30;97.00;;;;;;5092163;28;20425;-77
2022/10/28 11:26:24;;;;;;;9.40;3.43;;;24.20;97.60;;;;;;5092216;28;20957;-82
2022/10/28 11:29:07;;;;;;;12.43;3.20;;;24.00;97.40;;;;;;5092370;28;20458;-81
2022/10/28 11:31:51;;;;;;;12.47;4.60;;;23.90;99.90;;;;;;5092238;28;20433;-80
2022/10/28 11:34:47;;;;;;;11.77;2.93;;;24.00;98.50;;;;;;5092281;28;20504;-81
2022/10/28 11:37:37;;;;;;;11.37;3.03;;;23.70;98.00;;;;;;5091682;28;20467;-79
2022/10/28 11:40:18;;;;;;;7.23;3.10;;;23.50;99.90;;;;;;5110909;28;20418;-80
2022/10/28 11:43:15;;;;;;;11.73;3.37;;;23.70;99.90;;;;;;5111282;28;20771;-81
2022/10/28 11:45:55;;;;;;;8.77;3.40;;;23.90;99.90;;;;;;5091954;28;20471;-81
2022/10/28 11:48:26;;;;;;;7.13;3.40;;;24.40;99.90;;;;;;5092197;28;20502;-81
2022/10/28 11:51:15;;;;;;;12.63;3.90;;;24.60;98.90;;;;;;5092489;28;20418;-81
2022/10/28 11:53:53;;;;;;;10.90;3.77;;;24.60;99.10;;;;;;5110241;28;20895;-80
2022/10/28 11:56:43;;;;;;;11.60;4.23;;;24.50;99.70;;;;;;5091721;28;20435;-78
2022/10/28 11:59:39;;;;;;;7.07;3.70;;;24.40;99.90;;;;;;5110937;28;20418;-80
2022/10/28 12:02:27;;;;;;;11.77;4.40;;;24.40;99.90;;;;;;5110378;28;20888;-83
2022/10/28 12:05:14;;;;;;;9.13;4.17;;;24.20;99.90;;;;;;5110373;28;20422;-78
2022/10/28 12:07:52;;;;;;;9.20;4.37;;;24.00;99.90;;;;;;5110078;28;20981;-80
2022/10/28 12:10:43;;;;;;;8.67;3.33;;;23.60;99.90;;;;;;5091550;28;20999;-80
2022/10/28 12:13:22;;;;;;;14.23;4.10;;;23.40;99.90;;;;;;5110872;28;20405;-79
2022/10/28 12:16:06;;;;;;;10.07;4.07;;;23.20;99.90;;;;;;5111196;28;20438;-77
2022/10/28 12:18:46;;;;;;;13.80;3.50;;;23.10;99.90;;;;;;5116334;28;20868;-78
2022/10/28 12:21:28;;;;;;;13.80;3.73;;;23.00;99.90;;;;;;5116015;28;20424;-81
2022/10/28 12:23:56;;;;;;;10.00;3.27;;;23.00;99.90;;;;;;5116011;28;20418;-80
2022/10/28 12:26:33;;;;;;;10.47;3.73;;;23.00;99.90;;;;;;5096672;28;20839;-77
2022/10/28 12:29:03;;;;;;;7.77;2.90;;;22.90;99.90;;;;;;5116031;28;20442;-78
2022/10/28 12:31:39;;;;;;;12.10;3.80;;;22.90;99.90;;;;;;5100823;28;20417;-78
2022/10/28 12:34:11;;;;;;;10.20;3.23;;;22.70;99.90;;;;;;5117982;28;20419;-77
2022/10/28 12:36:52;;;;;;;20.20;4.33;;;22.40;99.90;;;;;;5099648;28;20529;-77
2022/10/28 12:39:38;;;;;;;9.27;3.10;;;22.30;99.90;;;;;;5099467;28;20415;-77
2022/10/28 12:42:25;;;;;;;8.47;3.20;;;22.40;99.90;;;;;;5116663;28;20410;-77
2022/10/28 12:44:53;;;;;;;9.00;3.63;;;22.50;99.90;;;;;;5097985;28;20420;-78
2022/10/28 12:47:50;;;;;;;15.43;7.20;;;22.70;99.90;;;;;;5097634;28;20435;-76
2022/10/28 12:50:38;;;;;;;18.10;6.30;;;22.80;99.90;;;;;;5116149;28;20833;-77
2022/10/28 12:53:04;;;;;;;15.27;4.93;;;22.90;99.90;;;;;;5115624;28;20402;-78
2022/10/28 12:55:41;;;;;;;8.20;3.23;;;23.20;97.30;;;;;;5096342;28;20790;-80
2022/10/28 12:58:22;;;;;;;18.20;3.47;;;23.50;96.20;;;;;;5095668;28;20207;-83
2022/10/28 13:01:18;;;;;;;8.63;1.83;;;23.80;93.30;;;;;;5096438;28;20461;-80
2022/10/28 13:03:44;;;;;;;10.37;2.33;;;24.20;90.40;;;;;;5094531;28;20423;-83
2022/10/28 13:06:31;;;;;;;7.17;2.37;;;24.40;90.80;;;;;;5094433;28;20465;-82
2022/10/28 13:09:33;;;;;;;10.17;2.00;;;24.70;89.30;;;;;;5094120;28;20203;-83